sensor_id;sensor_type;location;lat;lon;timestamp;pressure;altitude;pressure_sealevel;temperature;humidity
21111;BME280;10713;51.912;4.494;2024-02-15T00:02:14;101694.88;;;12.27;100.00
21111;BME280;10713;51.912;4.494;2024-02-15T00:04:39;101692.31;;;12.25;100.00
21111;BME280;10713;51.912;4.494;2024-02-15T00:07:05;101690.44;;;12.27;100.00
21111;BME280;10713;51.912;4.494;2024-02-15T00:09:30;101688.69;;;12.28;100.00
21111;BME280;10713;51.912;4.494;2024-02-15T00:11:56;101681.56;;;12.30;100.00
21111;BME280;10713;51.912;4.494;2024-02-15T00:14:21;101688.59;;;12.31;100.00
21111;BME280;10713;51.912;4.494;2024-02-15T00:16:47;101685.06;;;12.30;100.00
21111;BME280;10713;51.912;4.494;2024-02-15T00:19:12;101681.56;;;12.30;100.00
21111;BME280;10713;51.912;4.494;2024-02-15T00:21:43;101686.06;;;12.28;100.00
21111;BME280;10713;51.912;4.494;2024-02-15T00:24:08;101682.47;;;12.29;100.00
21111;BME280;10713;51.912;4.494;2024-02-15T00:26:34;101685.94;;;12.31;100.00
21111;BME280;10713;51.912;4.494;2024-02-15T00:28:59;101678.75;;;12.34;100.00
21111;BME280;10713;51.912;4.494;2024-02-15T00:31:26;101675.28;;;12.32;100.00
21111;BME280;10713;51.912;4.494;2024-02-15T00:33:51;101674.31;;;12.35;100.00
21111;BME280;10713;51.912;4.494;2024-02-15T00:36:16;101684.00;;;12.36;100.00
21111;BME280;10713;51.912;4.494;2024-02-15T00:38:43;101679.47;;;12.39;100.00
21111;BME280;10713;51.912;4.494;2024-02-15T00:41:08;101680.03;;;12.49;100.00
21111;BME280;10713;51.912;4.494;2024-02-15T00:43:36;101678.41;;;12.45;100.00
21111;BME280;10713;51.912;4.494;2024-02-15T00:46:02;101666.88;;;12.46;100.00
21111;BME280;10713;51.912;4.494;2024-02-15T00:48:27;101669.69;;;12.42;100.00
21111;BME280;10713;51.912;4.494;2024-02-15T00:50:55;101668.81;;;12.41;100.00
21111;BME280;10713;51.912;4.494;2024-02-15T00:53:20;101664.50;;;12.38;100.00
21111;BME280;10713;51.912;4.494;2024-02-15T00:55:46;101664.25;;;12.46;100.00
21111;BME280;10713;51.912;4.494;2024-02-15T00:58:11;101664.13;;;12.49;100.00
21111;BME280;10713;51.912;4.494;2024-02-15T01:00:37;101662.56;;;12.44;100.00
21111;BME280;10713;51.912;4.494;2024-02-15T01:03:03;101664.28;;;12.45;100.00
21111;BME280;10713;51.912;4.494;2024-02-15T01:05:29;101651.16;;;12.42;100.00
21111;BME280;10713;51.912;4.494;2024-02-15T01:07:56;101654.69;;;12.42;100.00
21111;BME280;10713;51.912;4.494;2024-02-15T01:10:22;101654.56;;;12.45;100.00
21111;BME280;10713;51.912;4.494;2024-02-15T01:12:49;101654.63;;;12.44;100.00
21111;BME280;10713;51.912;4.494;2024-02-15T01:15:14;101659.16;;;12.40;100.00
21111;BME280;10713;51.912;4.494;2024-02-15T01:17:43;101653.91;;;12.38;100.00
21111;BME280;10713;51.912;4.494;2024-02-15T01:20:10;101655.75;;;12.36;100.00
21111;BME280;10713;51.912;4.494;2024-02-15T01:22:35;101639.88;;;12.36;100.00
21111;BME280;10713;51.912;4.494;2024-02-15T01:25:01;101640.84;;;12.34;100.00
21111;BME280;10713;51.912;4.494;2024-02-15T01:27:26;101638.97;;;12.36;100.00
21111;BME280;10713;51.912;4.494;2024-02-15T01:29:56;101634.56;;;12.36;100.00
21111;BME280;10713;51.912;4.494;2024-02-15T01:32:21;101633.75;;;12.34;100.00
21111;BME280;10713;51.912;4.494;2024-02-15T01:34:46;101636.44;;;12.33;100.00
21111;BME280;10713;51.912;4.494;2024-02-15T01:37:12;101631.22;;;12.31;100.00
21111;BME280;10713;51.912;4.494;2024-02-15T01:39:37;101645.28;;;12.33;100.00
21111;BME280;10713;51.912;4.494;2024-02-15T01:42:03;101639.09;;;12.33;100.00
21111;BME280;10713;51.912;4.494;2024-02-15T01:44:28;101635.69;;;12.29;100.00
21111;BME280;10713;51.912;4.494;2024-02-15T01:46:54;101633.91;;;12.30;100.00
21111;BME280;10713;51.912;4.494;2024-02-15T01:49:24;101632.19;;;12.29;100.00
21111;BME280;10713;51.912;4.494;2024-02-15T01:51:51;101636.44;;;12.33;100.00
21111;BME280;10713;51.912;4.494;2024-02-15T01:54:18;101630.34;;;12.31;100.00
21111;BME280;10713;51.912;4.494;2024-02-15T01:56:44;101625.00;;;12.32;100.00
21111;BME280;10713;51.912;4.494;2024-02-15T01:59:11;101625.75;;;12.36;100.00
21111;BME280;10713;51.912;4.494;2024-02-15T02:01:39;101617.81;;;12.36;100.00
21111;BME280;10713;51.912;4.494;2024-02-15T02:04:04;101615.13;;;12.37;100.00
21111;BME280;10713;51.912;4.494;2024-02-15T02:06:30;101608.09;;;12.36;100.00
21111;BME280;10713;51.912;4.494;2024-02-15T02:08:56;101617.66;;;12.40;100.00
21111;BME280;10713;51.912;4.494;2024-02-15T02:11:23;101622.91;;;12.42;100.00
21111;BME280;10713;51.912;4.494;2024-02-15T02:13:49;101614.84;;;12.45;100.00
21111;BME280;10713;51.912;4.494;2024-02-15T02:16:27;101606.00;;;12.46;100.00
21111;BME280;10713;51.912;4.494;2024-02-15T02:18:57;101607.66;;;12.49;100.00
21111;BME280;10713;51.912;4.494;2024-02-15T02:21:26;101612.00;;;12.51;100.00
21111;BME280;10713;51.912;4.494;2024-02-15T02:23:58;101602.22;;;12.53;100.00
21111;BME280;10713;51.912;4.494;2024-02-15T02:26:25;101600.44;;;12.54;100.00
21111;BME280;10713;51.912;4.494;2024-02-15T02:28:51;101601.94;;;12.61;100.00
21111;BME280;10713;51.912;4.494;2024-02-15T02:31:20;101596.69;;;12.59;100.00
21111;BME280;10713;51.912;4.494;2024-02-15T02:33:49;101597.50;;;12.61;100.00
21111;BME280;10713;51.912;4.494;2024-02-15T02:36:17;101591.41;;;12.59;100.00
21111;BME280;10713;51.912;4.494;2024-02-15T02:38:43;101600.25;;;12.58;100.00
21111;BME280;10713;51.912;4.494;2024-02-15T02:41:10;101601.06;;;12.60;100.00
21111;BME280;10713;51.912;4.494;2024-02-15T02:43:36;101601.09;;;12.59;100.00
21111;BME280;10713;51.912;4.494;2024-02-15T02:46:02;101602.91;;;12.58;100.00
21111;BME280;10713;51.912;4.494;2024-02-15T02:48:31;101606.38;;;12.60;100.00
21111;BME280;10713;51.912;4.494;2024-02-15T02:50:56;101602.84;;;12.60;100.00
21111;BME280;10713;51.912;4.494;2024-02-15T02:53:22;101602.91;;;12.58;100.00
21111;BME280;10713;51.912;4.494;2024-02-15T02:55:47;101591.50;;;12.56;100.00
21111;BME280;10713;51.912;4.494;2024-02-15T02:58:12;101597.66;;;12.57;100.00
21111;BME280;10713;51.912;4.494;2024-02-15T03:00:38;101594.16;;;12.56;100.00
21111;BME280;10713;51.912;4.494;2024-02-15T03:03:05;101599.47;;;12.56;100.00
21111;BME280;10713;51.912;4.494;2024-02-15T03:05:31;101598.53;;;12.57;100.00
21111;BME280;10713;51.912;4.494;2024-02-15T03:07:56;101598.56;;;12.56;100.00
21111;BME280;10713;51.912;4.494;2024-02-15T03:10:22;101590.69;;;12.54;100.00
21111;BME280;10713;51.912;4.494;2024-02-15T03:12:49;101594.09;;;12.58;100.00
21111;BME280;10713;51.912;4.494;2024-02-15T03:15:15;101590.59;;;12.57;100.00
21111;BME280;10713;51.912;4.494;2024-02-15T03:17:42;101593.38;;;12.53;100.00
21111;BME280;10713;51.912;4.494;2024-02-15T03:20:10;101585.63;;;12.48;100.00
21111;BME280;10713;51.912;4.494;2024-02-15T03:22:58;101577.81;;;12.44;100.00
21111;BME280;10713;51.912;4.494;2024-02-15T03:25:25;101581.41;;;12.43;100.00
21111;BME280;10713;51.912;4.494;2024-02-15T03:27:51;101580.72;;;12.36;100.00
21111;BME280;10713;51.912;4.494;2024-02-15T03:30:21;101586.00;;;12.37;100.00
21111;BME280;10713;51.912;4.494;2024-02-15T03:32:47;101588.69;;;12.36;100.00
21111;BME280;10713;51.912;4.494;2024-02-15T03:35:19;101582.75;;;12.29;100.00
21111;BME280;10713;51.912;4.494;2024-02-15T03:37:45;101586.34;;;12.27;100.00
21111;BME280;10713;51.912;4.494;2024-02-15T03:40:11;101579.34;;;12.26;100.00
21111;BME280;10713;51.912;4.494;2024-02-15T03:42:37;101594.41;;;12.24;100.00
21111;BME280;10713;51.912;4.494;2024-02-15T03:45:03;101597.06;;;12.24;100.00
21111;BME280;10713;51.912;4.494;2024-02-15T03:47:28;101586.56;;;12.21;100.00
21111;BME280;10713;51.912;4.494;2024-02-15T03:49:54;101576.81;;;12.23;100.00
21111;BME280;10713;51.912;4.494;2024-02-15T03:52:21;101578.59;;;12.22;100.00
21111;BME280;10713;51.912;4.494;2024-02-15T03:54:47;101591.88;;;12.21;100.00
21111;BME280;10713;51.912;4.494;2024-02-15T03:57:12;101582.13;;;12.21;100.00
21111;BME280;10713;51.912;4.494;2024-02-15T03:59:38;101582.19;;;12.20;100.00
21111;BME280;10713;51.912;4.494;2024-02-15T04:02:05;101575.25;;;12.15;100.00
21111;BME280;10713;51.912;4.494;2024-02-15T04:04:33;101583.22;;;12.15;100.00
21111;BME280;10713;51.912;4.494;2024-02-15T04:06:59;101571.00;;;12.11;100.00
21111;BME280;10713;51.912;4.494;2024-02-15T04:09:25;101574.59;;;12.10;100.00
21111;BME280;10713;51.912;4.494;2024-02-15T04:11:50;101571.88;;;12.12;100.00
21111;BME280;10713;51.912;4.494;2024-02-15T04:14:18;101572.00;;;12.07;100.00
21111;BME280;10713;51.912;4.494;2024-02-15T04:16:44;101571.13;;;12.08;100.00
21111;BME280;10713;51.912;4.494;2024-02-15T04:19:10;101568.38;;;12.11;100.00
21111;BME280;10713;51.912;4.494;2024-02-15T04:21:36;101570.25;;;12.08;100.00
21111;BME280;10713;51.912;4.494;2024-02-15T04:24:02;101570.28;;;12.06;100.00
21111;BME280;10713;51.912;4.494;2024-02-15T04:26:27;101567.53;;;12.09;100.00
21111;BME280;10713;51.912;4.494;2024-02-15T04:28:55;101558.03;;;12.04;100.00
21111;BME280;10713;51.912;4.494;2024-02-15T04:31:21;101567.00;;;12.00;100.00
21111;BME280;10713;51.912;4.494;2024-02-15T04:33:54;101569.44;;;12.06;100.00
21111;BME280;10713;51.912;4.494;2024-02-15T04:36:19;101566.72;;;12.07;100.00
21111;BME280;10713;51.912;4.494;2024-02-15T04:38:52;101576.34;;;12.10;100.00
21111;BME280;10713;51.912;4.494;2024-02-15T04:41:18;101582.53;;;12.10;100.00
21111;BME280;10713;51.912;4.494;2024-02-15T04:43:47;101583.31;;;12.12;100.00
21111;BME280;10713;51.912;4.494;2024-02-15T04:46:12;101586.88;;;12.11;100.00
21111;BME280;10713;51.912;4.494;2024-02-15T04:48:39;101586.78;;;12.14;100.00
21111;BME280;10713;51.912;4.494;2024-02-15T04:51:07;101591.25;;;12.12;100.00
21111;BME280;10713;51.912;4.494;2024-02-15T04:53:32;101583.22;;;12.15;100.00
21111;BME280;10713;51.912;4.494;2024-02-15T04:55:58;101577.88;;;12.17;100.00
21111;BME280;10713;51.912;4.494;2024-02-15T04:58:26;101557.66;;;12.14;100.00
21111;BME280;10713;51.912;4.494;2024-02-15T05:00:54;101533.00;;;12.14;100.00
21111;BME280;10713;51.912;4.494;2024-02-15T05:03:24;101478.72;;;12.02;100.00
21111;BME280;10713;51.912;4.494;2024-02-15T05:05:49;101497.44;;;11.96;100.00
21111;BME280;10713;51.912;4.494;2024-02-15T05:08:15;101534.53;;;11.94;100.00
21111;BME280;10713;51.912;4.494;2024-02-15T05:10:41;101532.00;;;11.91;100.00
21111;BME280;10713;51.912;4.494;2024-02-15T05:13:06;101527.53;;;11.93;100.00
21111;BME280;10713;51.912;4.494;2024-02-15T05:15:33;101530.09;;;11.95;100.00
21111;BME280;10713;51.912;4.494;2024-02-15T05:17:58;101532.75;;;11.95;100.00
21111;BME280;10713;51.912;4.494;2024-02-15T05:20:26;101521.31;;;11.94;100.00
21111;BME280;10713;51.912;4.494;2024-02-15T05:22:52;101531.84;;;11.96;100.00
21111;BME280;10713;51.912;4.494;2024-02-15T05:25:19;101514.22;;;11.95;100.00
21111;BME280;10713;51.912;4.494;2024-02-15T05:27:48;101506.28;;;11.95;100.00
21111;BME280;10713;51.912;4.494;2024-02-15T05:30:14;101508.81;;;11.98;100.00
21111;BME280;10713;51.912;4.494;2024-02-15T05:32:40;101504.50;;;11.95;100.00
21111;BME280;10713;51.912;4.494;2024-02-15T05:35:10;101502.78;;;11.94;100.00
21111;BME280;10713;51.912;4.494;2024-02-15T05:37:37;101514.19;;;11.97;100.00
21111;BME280;10713;51.912;4.494;2024-02-15T05:40:03;101519.50;;;11.95;100.00
21111;BME280;10713;51.912;4.494;2024-02-15T05:42:30;101513.31;;;11.96;100.00
21111;BME280;10713;51.912;4.494;2024-02-15T05:45:04;101516.72;;;12.00;100.00
21111;BME280;10713;51.912;4.494;2024-02-15T05:47:39;101511.44;;;12.00;100.00
21111;BME280;10713;51.912;4.494;2024-02-15T05:50:06;101507.84;;;12.01;100.00
21111;BME280;10713;51.912;4.494;2024-02-15T05:52:32;101512.28;;;12.00;100.00
21111;BME280;10713;51.912;4.494;2024-02-15T05:54:57;101511.44;;;12.00;100.00
21111;BME280;10713;51.912;4.494;2024-02-15T05:57:22;101502.53;;;12.02;100.00
21111;BME280;10713;51.912;4.494;2024-02-15T05:59:48;101487.66;;;11.98;100.00
21111;BME280;10713;51.912;4.494;2024-02-15T06:02:14;101484.00;;;12.02;100.00
21111;BME280;10713;51.912;4.494;2024-02-15T06:04:41;101492.84;;;12.01;100.00
21111;BME280;10713;51.912;4.494;2024-02-15T06:07:06;101498.84;;;12.06;100.00
21111;BME280;10713;51.912;4.494;2024-02-15T06:09:34;101491.84;;;12.05;100.00
21111;BME280;10713;51.912;4.494;2024-02-15T06:12:02;101501.50;;;12.06;100.00
21111;BME280;10713;51.912;4.494;2024-02-15T06:14:27;101494.38;;;12.08;100.00
21111;BME280;10713;51.912;4.494;2024-02-15T06:16:53;101495.25;;;12.07;100.00
21111;BME280;10713;51.912;4.494;2024-02-15T06:19:20;101493.44;;;12.09;100.00
21111;BME280;10713;51.912;4.494;2024-02-15T06:21:45;101490.78;;;12.09;100.00
21111;BME280;10713;51.912;4.494;2024-02-15T06:24:12;101480.22;;;12.09;100.00
21111;BME280;10713;51.912;4.494;2024-02-15T06:26:37;101483.81;;;12.07;100.00
21111;BME280;10713;51.912;4.494;2024-02-15T06:29:02;101477.75;;;12.05;100.00
21111;BME280;10713;51.912;4.494;2024-02-15T06:31:46;101483.78;;;12.08;100.00
21111;BME280;10713;51.912;4.494;2024-02-15T06:34:30;101483.69;;;12.11;100.00
21111;BME280;10713;51.912;4.494;2024-02-15T06:37:35;101478.41;;;12.10;100.00
21111;BME280;10713;51.912;4.494;2024-02-15T06:40:19;101478.50;;;12.08;100.00
21111;BME280;10713;51.912;4.494;2024-02-15T06:42:44;101482.00;;;12.09;100.00
21111;BME280;10713;51.912;4.494;2024-02-15T06:45:09;101482.94;;;12.08;100.00
21111;BME280;10713;51.912;4.494;2024-02-15T06:47:35;101479.38;;;12.07;100.00
21111;BME280;10713;51.912;4.494;2024-02-15T06:50:00;101479.34;;;12.09;100.00
21111;BME280;10713;51.912;4.494;2024-02-15T06:52:26;101484.59;;;12.10;100.00
21111;BME280;10713;51.912;4.494;2024-02-15T06:54:51;101497.88;;;12.09;100.00
21111;BME280;10713;51.912;4.494;2024-02-15T06:57:17;101510.97;;;12.13;100.00
21111;BME280;10713;51.912;4.494;2024-02-15T06:59:46;101504.72;;;12.14;100.00
21111;BME280;10713;51.912;4.494;2024-02-15T07:02:11;101508.25;;;12.15;100.00
21111;BME280;10713;51.912;4.494;2024-02-15T07:04:37;101509.09;;;12.15;100.00
21111;BME280;10713;51.912;4.494;2024-02-15T07:07:02;101510.84;;;12.16;100.00
21111;BME280;10713;51.912;4.494;2024-02-15T07:09:28;101512.69;;;12.14;100.00
21111;BME280;10713;51.912;4.494;2024-02-15T07:11:54;101516.13;;;12.16;100.00
21111;BME280;10713;51.912;4.494;2024-02-15T07:14:19;101514.38;;;12.15;100.00
21111;BME280;10713;51.912;4.494;2024-02-15T07:16:48;101517.84;;;12.17;100.00
21111;BME280;10713;51.912;4.494;2024-02-15T07:19:14;101517.84;;;12.17;100.00
21111;BME280;10713;51.912;4.494;2024-02-15T07:21:41;101524.88;;;12.18;100.00
21111;BME280;10713;51.912;4.494;2024-02-15T07:24:06;101524.00;;;12.18;100.00
21111;BME280;10713;51.912;4.494;2024-02-15T07:26:32;101526.63;;;12.20;100.00
21111;BME280;10713;51.912;4.494;2024-02-15T07:29:00;101521.31;;;12.20;100.00
21111;BME280;10713;51.912;4.494;2024-02-15T07:31:28;101516.88;;;12.20;100.00
21111;BME280;10713;51.912;4.494;2024-02-15T07:33:56;101516.88;;;12.20;100.00
21111;BME280;10713;51.912;4.494;2024-02-15T07:36:23;101512.53;;;12.19;100.00
21111;BME280;10713;51.912;4.494;2024-02-15T07:38:52;101513.31;;;12.21;100.00
21111;BME280;10713;51.912;4.494;2024-02-15T07:41:19;101514.16;;;12.22;100.00
21111;BME280;10713;51.912;4.494;2024-02-15T07:43:50;101504.47;;;12.22;100.00
21111;BME280;10713;51.912;4.494;2024-02-15T07:46:16;101508.09;;;12.20;100.00
21111;BME280;10713;51.912;4.494;2024-02-15T07:48:42;101497.44;;;12.21;100.00
21111;BME280;10713;51.912;4.494;2024-02-15T07:51:17;101500.06;;;12.21;100.00
21111;BME280;10713;51.912;4.494;2024-02-15T07:53:46;101494.75;;;12.23;100.00
21111;BME280;10713;51.912;4.494;2024-02-15T07:56:14;101488.63;;;12.21;100.00
21111;BME280;10713;51.912;4.494;2024-02-15T07:58:44;101494.75;;;12.23;100.00
21111;BME280;10713;51.912;4.494;2024-02-15T08:01:16;101500.84;;;12.25;100.00
21111;BME280;10713;51.912;4.494;2024-02-15T08:03:42;101493.69;;;12.27;100.00
21111;BME280;10713;51.912;4.494;2024-02-15T08:06:13;101487.69;;;12.22;100.00
21111;BME280;10713;51.912;4.494;2024-02-15T08:08:41;101477.03;;;12.25;100.00
21111;BME280;10713;51.912;4.494;2024-02-15T08:11:10;101485.88;;;12.24;100.00
21111;BME280;10713;51.912;4.494;2024-02-15T08:13:51;101498.22;;;12.25;100.00
21111;BME280;10713;51.912;4.494;2024-02-15T08:16:20;101506.16;;;12.25;100.00
21111;BME280;10713;51.912;4.494;2024-02-15T08:18:48;101497.41;;;12.23;100.00
21111;BME280;10713;51.912;4.494;2024-02-15T08:21:14;101500.16;;;12.20;100.00
21111;BME280;10713;51.912;4.494;2024-02-15T08:23:39;101496.56;;;12.21;100.00
21111;BME280;10713;51.912;4.494;2024-02-15T08:26:05;101496.47;;;12.24;100.00
21111;BME280;10713;51.912;4.494;2024-02-15T08:28:31;101501.72;;;12.25;100.00
21111;BME280;10713;51.912;4.494;2024-02-15T08:30:56;101505.25;;;12.24;100.00
21111;BME280;10713;51.912;4.494;2024-02-15T08:33:24;101500.78;;;12.26;100.00
21111;BME280;10713;51.912;4.494;2024-02-15T08:35:49;101501.59;;;12.28;100.00
21111;BME280;10713;51.912;4.494;2024-02-15T08:38:15;101498.09;;;12.28;100.00
21111;BME280;10713;51.912;4.494;2024-02-15T08:40:42;101498.03;;;12.29;100.00
21111;BME280;10713;51.912;4.494;2024-02-15T08:43:10;101490.91;;;12.31;100.00
21111;BME280;10713;51.912;4.494;2024-02-15T08:45:35;101495.38;;;12.29;100.00
21111;BME280;10713;51.912;4.494;2024-02-15T08:48:01;101486.47;;;12.32;100.00
21111;BME280;10713;51.912;4.494;2024-02-15T08:50:29;101493.44;;;12.34;100.00
21111;BME280;10713;51.912;4.494;2024-02-15T08:52:55;101494.19;;;12.38;100.00
21111;BME280;10713;51.912;4.494;2024-02-15T08:55:21;101487.09;;;12.38;100.00
21111;BME280;10713;51.912;4.494;2024-02-15T08:57:52;101485.25;;;12.40;100.00
21111;BME280;10713;51.912;4.494;2024-02-15T09:00:17;101485.25;;;12.40;100.00
21111;BME280;10713;51.912;4.494;2024-02-15T09:02:43;101473.75;;;12.42;100.00
21111;BME280;10713;51.912;4.494;2024-02-15T09:05:09;101483.25;;;12.47;100.00
21111;BME280;10713;51.912;4.494;2024-02-15T09:07:35;101480.59;;;12.47;100.00
21111;BME280;10713;51.912;4.494;2024-02-15T09:10:02;101484.06;;;12.49;100.00
21111;BME280;10713;51.912;4.494;2024-02-15T09:12:28;101477.22;;;12.44;100.00
21111;BME280;10713;51.912;4.494;2024-02-15T09:14:53;101481.41;;;12.49;100.00
21111;BME280;10713;51.912;4.494;2024-02-15T09:17:19;101466.38;;;12.50;100.00
21111;BME280;10713;51.912;4.494;2024-02-15T09:19:47;101469.00;;;12.51;100.00
21111;BME280;10713;51.912;4.494;2024-02-15T09:22:14;101459.13;;;12.55;100.00
21111;BME280;10713;51.912;4.494;2024-02-15T09:24:40;101468.75;;;12.57;100.00
21111;BME280;10713;51.912;4.494;2024-02-15T09:27:05;101467.59;;;12.65;100.00
21111;BME280;10713;51.912;4.494;2024-02-15T09:29:31;101469.38;;;12.64;100.00
21111;BME280;10713;51.912;4.494;2024-02-15T09:31:58;101471.75;;;12.72;100.00
21111;BME280;10713;51.912;4.494;2024-02-15T09:34:24;101472.47;;;12.75;100.00
21111;BME280;10713;51.912;4.494;2024-02-15T09:36:50;101474.16;;;12.78;100.00
21111;BME280;10713;51.912;4.494;2024-02-15T09:39:15;101477.50;;;12.83;100.00
21111;BME280;10713;51.912;4.494;2024-02-15T09:41:42;101467.59;;;12.88;100.00
21111;BME280;10713;51.912;4.494;2024-02-15T09:44:08;101470.00;;;12.94;100.00
21111;BME280;10713;51.912;4.494;2024-02-15T09:46:42;101469.88;;;12.97;100.00
21111;BME280;10713;51.912;4.494;2024-02-15T09:49:11;101465.25;;;13.02;100.00
21111;BME280;10713;51.912;4.494;2024-02-15T09:51:37;101463.25;;;13.07;100.00
21111;BME280;10713;51.912;4.494;2024-02-15T09:54:04;101465.91;;;13.07;100.00
21111;BME280;10713;51.912;4.494;2024-02-15T09:56:31;101461.25;;;13.14;100.00
21111;BME280;10713;51.912;4.494;2024-02-15T09:58:59;101465.44;;;13.20;100.00
21111;BME280;10713;51.912;4.494;2024-02-15T10:01:26;101466.03;;;13.28;100.00
21111;BME280;10713;51.912;4.494;2024-02-15T10:03:52;101472.69;;;13.38;100.00
21111;BME280;10713;51.912;4.494;2024-02-15T10:06:19;101482.78;;;13.50;100.00
21111;BME280;10713;51.912;4.494;2024-02-15T10:08:44;101477.84;;;13.63;100.00
21111;BME280;10713;51.912;4.494;2024-02-15T10:11:12;101481.44;;;13.62;100.00
21111;BME280;10713;51.912;4.494;2024-02-15T10:13:38;101481.44;;;13.62;100.00
21111;BME280;10713;51.912;4.494;2024-02-15T10:16:17;101482.34;;;13.61;100.00
21111;BME280;10713;51.912;4.494;2024-02-15T10:18:46;101476.91;;;13.64;100.00
21111;BME280;10713;51.912;4.494;2024-02-15T10:21:26;101481.66;;;13.56;100.00
21111;BME280;10713;51.912;4.494;2024-02-15T10:24:20;101485.78;;;13.63;100.00
21111;BME280;10713;51.912;4.494;2024-02-15T10:26:48;101478.16;;;13.76;100.00
21111;BME280;10713;51.912;4.494;2024-02-15T10:29:13;101484.63;;;13.91;100.00
21111;BME280;10713;51.912;4.494;2024-02-15T10:31:52;101478.00;;;14.01;100.00
21111;BME280;10713;51.912;4.494;2024-02-15T10:34:18;101477.72;;;14.07;100.00
21111;BME280;10713;51.912;4.494;2024-02-15T10:36:46;101479.09;;;14.16;100.00
21111;BME280;10713;51.912;4.494;2024-02-15T10:39:12;101481.63;;;14.19;100.00
21111;BME280;10713;51.912;4.494;2024-02-15T10:41:43;101467.44;;;14.20;100.00
21111;BME280;10713;51.912;4.494;2024-02-15T10:44:11;101474.31;;;14.24;100.00
21111;BME280;10713;51.912;4.494;2024-02-15T10:46:37;101469.94;;;14.23;100.00
21111;BME280;10713;51.912;4.494;2024-02-15T10:49:03;101466.31;;;14.45;100.00
21111;BME280;10713;51.912;4.494;2024-02-15T10:51:28;101463.16;;;14.57;100.00
21111;BME280;10713;51.912;4.494;2024-02-15T10:54:01;101466.88;;;14.72;100.00
21111;BME280;10713;51.912;4.494;2024-02-15T10:56:34;101461.13;;;14.81;100.00
21111;BME280;10713;51.912;4.494;2024-02-15T10:59:18;101466.16;;;14.87;100.00
21111;BME280;10713;51.912;4.494;2024-02-15T11:01:45;101459.38;;;14.99;100.00
21111;BME280;10713;51.912;4.494;2024-02-15T11:04:14;101455.50;;;15.06;100.00
21111;BME280;10713;51.912;4.494;2024-02-15T11:06:42;101459.53;;;15.15;100.00
21111;BME280;10713;51.912;4.494;2024-02-15T11:09:10;101462.88;;;15.18;100.00
21111;BME280;10713;51.912;4.494;2024-02-15T11:11:37;101455.72;;;15.20;100.00
21111;BME280;10713;51.912;4.494;2024-02-15T11:14:29;101450.09;;;15.26;100.00
21111;BME280;10713;51.912;4.494;2024-02-15T11:16:56;101446.03;;;15.37;100.00
21111;BME280;10713;51.912;4.494;2024-02-15T11:19:42;101452.69;;;15.45;100.00
21111;BME280;10713;51.912;4.494;2024-02-15T11:22:15;101441.59;;;15.54;100.00
21111;BME280;10713;51.912;4.494;2024-02-15T11:27:24;101444.34;;;15.70;100.00
21111;BME280;10713;51.912;4.494;2024-02-15T11:30:00;101430.66;;;15.78;100.00
21111;BME280;10713;51.912;4.494;2024-02-15T11:32:45;101433.53;;;15.91;100.00
21111;BME280;10713;51.912;4.494;2024-02-15T11:40:27;101411.66;;;16.02;100.00
21111;BME280;10713;51.912;4.494;2024-02-15T11:42:58;101412.97;;;16.10;100.00
21111;BME280;10713;51.912;4.494;2024-02-15T11:45:28;101408.00;;;16.04;100.00
21111;BME280;10713;51.912;4.494;2024-02-15T11:47:59;101403.06;;;16.30;100.00
21111;BME280;10713;51.912;4.494;2024-02-15T11:50:27;101402.38;;;16.42;100.00
21111;BME280;10713;51.912;4.494;2024-02-15T11:53:01;101402.94;;;16.49;100.00
21111;BME280;10713;51.912;4.494;2024-02-15T11:55:31;101393.03;;;16.66;100.00
21111;BME280;10713;51.912;4.494;2024-02-15T11:57:59;101384.94;;;16.68;100.00
21111;BME280;10713;51.912;4.494;2024-02-15T12:00:42;101391.00;;;16.72;100.00
21111;BME280;10713;51.912;4.494;2024-02-15T12:03:27;101381.72;;;16.79;100.00
21111;BME280;10713;51.912;4.494;2024-02-15T12:06:12;101366.50;;;16.81;100.00
21111;BME280;10713;51.912;4.494;2024-02-15T12:09:00;101381.00;;;16.91;100.00
21111;BME280;10713;51.912;4.494;2024-02-15T12:11:44;101375.25;;;16.99;100.00
21111;BME280;10713;51.912;4.494;2024-02-15T12:14:28;101361.72;;;17.18;100.00
21111;BME280;10713;51.912;4.494;2024-02-15T12:17:13;101366.69;;;17.24;100.00
21111;BME280;10713;51.912;4.494;2024-02-15T12:20:00;101355.88;;;17.41;100.00
21111;BME280;10713;51.912;4.494;2024-02-15T12:22:32;101352.44;;;17.53;100.00
21111;BME280;10713;51.912;4.494;2024-02-15T12:25:00;101323.66;;;17.59;100.00
21111;BME280;10713;51.912;4.494;2024-02-15T12:27:26;101326.44;;;17.57;100.00
21111;BME280;10713;51.912;4.494;2024-02-15T12:29:58;101321.78;;;17.61;100.00
21111;BME280;10713;51.912;4.494;2024-02-15T12:32:25;101314.22;;;17.53;100.00
21111;BME280;10713;51.912;4.494;2024-02-15T12:35:09;101314.69;;;17.45;100.00
21111;BME280;10713;51.912;4.494;2024-02-15T12:37:36;101301.41;;;17.29;100.00
21111;BME280;10713;51.912;4.494;2024-02-15T12:40:15;101300.25;;;17.19;100.00
21111;BME280;10713;51.912;4.494;2024-02-15T12:42:46;101299.69;;;17.14;100.00
21111;BME280;10713;51.912;4.494;2024-02-15T12:45:19;101302.88;;;17.35;100.00
21111;BME280;10713;51.912;4.494;2024-02-15T12:47:52;101296.50;;;17.52;100.00
21111;BME280;10713;51.912;4.494;2024-02-15T12:50:23;101301.44;;;17.44;100.00
21111;BME280;10713;51.912;4.494;2024-02-15T12:52:49;101293.66;;;17.55;100.00
21111;BME280;10713;51.912;4.494;2024-02-15T12:55:17;101294.97;;;17.62;100.00